Ultralight Friuli Airfield

IT-0173 · Friuli Venezia Giulia, 意大利

METAR的历史 IT-0173 · Aviosuperficie Ultralight Friuli

下面你可以看到过去几天的METARs。 选择年份以浏览从2007年开始的旧METAR。

2022年12月5日

时间 代码 天气 温度 能见度 天花板 METAR/SPECI
19:20
M
12 °C 10 km+ 2.800 ft 290° 290° 25 kt METAR LIPQ 051820Z AUTO 29025KT 9999 TSRA FEW007/// BKN028/// 12/10 Q1016
18:50
V
14 °C 10 km+ 7.500 ft 170° 170° 12 kt METAR LIPQ 051750Z AUTO 17012KT 9999 -RA VCTS FEW025/// BKN075/// 14/11 Q1014
18:20
M
14 °C 10 km+ 2.100 ft 180° 180° 9 kt METAR LIPQ 051720Z AUTO 18009KT 9999 BKN021/// 14/11 Q1014
17:50
V
14 °C 10 km+ 4.500 ft 170° 170° 6 kt METAR LIPQ 051650Z AUTO 17006KT 9999 -RA SCT022/// BKN045/// 14/12 Q1015
17:20
M
14 °C 10 km+ 1.800 ft 170° 170° 7 kt METAR LIPQ 051620Z AUTO 17007KT 9999 BKN018/// BKN055/// 14/12 Q1015 RERA
16:50
M
13 °C 10 km+ 1.500 ft 130° 130° 7 kt METAR LIPQ 051550Z AUTO 13007KT 9999 BKN015/// 13/11 Q1015
16:20
M
13 °C 10 km+ 1.400 ft 150° 150° 4 kt METAR LIPQ 051520Z AUTO 15004KT 9999 BKN014/// BKN068/// 13/11 Q1016
15:50
M
13 °C 10 km+ 1.500 ft 140° 140° 5 kt METAR LIPQ 051450Z AUTO 14005KT 9999 BKN015/// 13/11 Q1016
15:20
M
13 °C 10 km+ 1.800 ft 140° 140° 5 kt METAR LIPQ 051420Z AUTO 14005KT 9999 -RA OVC018/// 13/12 Q1016
14:50
V
14 °C 10 km+ 4.300 ft 140° 140° 5 kt METAR LIPQ 051350Z AUTO 14005KT 9999 FEW024/// BKN043/// OVC077/// 14/12 Q1016
14:20
M
13 °C 10 km+ 1.300 ft 140° 140° 5 kt METAR LIPQ 051320Z AUTO 14005KT 9999 BKN013/// OVC045/// 13/12 Q1017
13:50
M
14 °C 10 km+ 1.100 ft 140° 140° 5 kt METAR LIPQ 051250Z AUTO 14005KT 9999 BKN011/// OVC052/// 14/12 Q1017
13:20
M
14 °C 10 km+ 1.600 ft 140° 140° 3 kt METAR LIPQ 051220Z AUTO 14003KT 9999 BKN016/// BKN062/// 14/12 Q1017
12:50
V
14 °C 10 km+ 5.200 ft 150° 150° 2 kt METAR LIPQ 051150Z AUTO 15002KT 9999 FEW014/// SCT017/// OVC052/// 14/12 Q1017
12:20
M
14 °C 10 km+ 1.600 ft Var Var 2 kt METAR LIPQ 051120Z AUTO VRB02KT 9999 BKN016/// 14/12 Q1018
11:50
V
14 °C 10 km+ 7.400 ft 170° 170° 3 kt METAR LIPQ 051050Z AUTO 17003KT 9999 -RA FEW036/// BKN074/// 14/12 Q1018
11:20
V
14 °C 10 km+ 9.700 ft 130° 130° 3 kt METAR LIPQ 051020Z AUTO 13003KT 9999 FEW015/// BKN097/// BKN110/// 14/12 Q1018
10:50
M
12 °C 10 km+ 1.700 ft 080° 080° 3 kt METAR LIPQ 050950Z AUTO 08003KT 050V120 9999 -RA BKN017/// BKN140/// 12/12 Q1018 RERA
10:20
M
11 °C 10 km+ 1.600 ft 070° 070° 3 kt METAR LIPQ 050920Z AUTO 07003KT 9999 -RA BKN016/// 11/11 Q1018
09:50
L
10 °C 10 km+ 200 ft 040° 040° 4 kt METAR LIPQ 050850Z AUTO 04004KT 9999 -RA OVC002/// 10/10 Q1018 RERA
09:20
I
10 °C 4,3 km 1.500 ft 350° 350° 5 kt METAR LIPQ 050820Z AUTO 35005KT 280V050 4300 +RA OVC015/// 10/10 Q1018
08:50
M
11 °C 7 km 1.400 ft 360° 360° 4 kt METAR LIPQ 050750Z AUTO 36004KT 280V070 7000 +RA OVC014/// 11/10 Q1018
08:20
I
11 °C 3,9 km 800 ft 060° 060° 5 kt METAR LIPQ 050720Z AUTO 06005KT 360V100 3900 +RA OVC008/// 11/10 Q1018
07:50
I
10 °C 10 km+ 800 ft 040° 040° 4 kt METAR LIPQ 050650Z AUTO 04004KT 360V110 9999 RA BKN008/// OVC027/// 10/09 Q1018
07:20
M
10 °C 8 km 1.500 ft 100° 100° 7 kt METAR LIPQ 050620Z AUTO 10007KT 8000 +RA OVC015/// 10/10 Q1018
06:50
I
9 °C 2 km 3.600 ft 100° 100° 4 kt METAR LIPQ 050550Z AUTO 10004KT 030V120 2000 +RA FEW010/// OVC036/// 09/09 Q1018
06:20
M
8 °C 9 km 1.500 ft Var Var 2 kt METAR LIPQ 050520Z AUTO VRB02KT 9000 RA BKN015/// OVC060/// 08/08 Q1018
05:50
I
8 °C 2,1 km 2.000 ft Var Var 1 kt METAR LIPQ 050450Z AUTO VRB01KT 2100 +RA BKN020/// BKN029/// OVC052/// 08/08 Q1018
05:20
V
8 °C 10 km+ 3.200 ft Var Var 1 kt METAR LIPQ 050420Z AUTO VRB01KT 9999 OVC032/// 08/07 Q1017
04:50
V
8 °C 10 km+ 5.300 ft Var Var 2 kt METAR LIPQ 050350Z AUTO VRB02KT 9999 OVC053/// 08/07 Q1018
04:20
V
8 °C 10 km+ 5.300 ft 070° 070° 3 kt METAR LIPQ 050320Z AUTO 07003KT 9999 BKN053/// BKN070/// 08/07 Q1018
03:50
V
7 °C 10 km+ 7.200 ft 040° 040° 3 kt METAR LIPQ 050250Z AUTO 04003KT 9999 BKN072/// 07/06 Q1018
03:20
V
7 °C 10 km+ 24.000 ft 040° 040° 3 kt METAR LIPQ 050220Z AUTO 04003KT 9999 FEW110/// BKN240/// 07/06 Q1018
02:50
V
7 °C 10 km+ 17.000 ft 040° 040° 4 kt METAR LIPQ 050150Z AUTO 04004KT 9999 FEW120/// BKN170/// 07/06 Q1018
02:20
V
7 °C 10 km+ 19.000 ft 030° 030° 4 kt METAR LIPQ 050120Z AUTO 03004KT 9999 FEW120/// BKN190/// 07/06 Q1018
01:50
V
7 °C 10 km+ - 360° 360° 4 kt METAR LIPQ 050050Z AUTO 36004KT 9999 SCT200/// 07/06 Q1018
01:20
V
7 °C 10 km+ - 020° 020° 3 kt METAR LIPQ 050020Z AUTO 02003KT 350V090 9999 FEW150/// 07/06 Q1018
00:50
V
8 °C 10 km+ 7.100 ft 050° 050° 3 kt METAR LIPQ 042350Z AUTO 05003KT 9999 BKN071/// 08/07 Q1018
00:20
V
8 °C 10 km+ 7.300 ft 020° 020° 4 kt METAR LIPQ 042320Z AUTO 02004KT 9999 OVC073/// 08/07 Q1018

2022年12月4日

时间 代码 天气 温度 能见度 天花板 METAR/SPECI
23:50
V
8 °C 10 km+ 6.100 ft 360° 360° 3 kt METAR LIPQ 042250Z AUTO 36003KT 9999 OVC061/// 08/07 Q1018
23:20
V
8 °C 10 km+ 4.800 ft 080° 080° 3 kt METAR LIPQ 042220Z AUTO 08003KT 050V120 9999 OVC048/// 08/07 Q1018
22:50
V
8 °C 10 km+ 5.300 ft 020° 020° 3 kt METAR LIPQ 042150Z AUTO 02003KT 9999 BKN053/// 08/07 Q1018
22:20
V
8 °C 10 km+ 5.900 ft 050° 050° 3 kt METAR LIPQ 042120Z AUTO 05003KT 360V080 9999 BKN059/// 08/07 Q1018
21:50
V
8 °C 10 km+ 6.000 ft 030° 030° 4 kt METAR LIPQ 042050Z AUTO 03004KT 360V060 9999 BKN060/// OVC072/// 08/07 Q1018
21:20
V
9 °C 10 km+ 6.900 ft 060° 060° 3 kt METAR LIPQ 042020Z AUTO 06003KT 030V090 9999 BKN069/// 09/08 Q1018
20:50
V
9 °C 10 km+ 6.900 ft 060° 060° 3 kt METAR LIPQ 041950Z AUTO 06003KT 9999 -RA FEW017/// OVC069/// 09/08 Q1018
20:20
M
9 °C 10 km+ 1.500 ft 010° 010° 3 kt METAR LIPQ 041920Z AUTO 01003KT 9999 OVC015/// 09/08 Q1018
19:50
V
9 °C 10 km+ 6.900 ft Var Var 2 kt METAR LIPQ 041850Z AUTO VRB02KT 9999 SCT018/// OVC069/// 09/08 Q1017
19:20
V
9 °C 10 km+ 6.500 ft 080° 080° 3 kt METAR LIPQ 041820Z AUTO 08003KT 030V100 9999 FEW019/// OVC065/// 09/08 Q1017
18:50
V
9 °C 10 km+ 6.800 ft 060° 060° 3 kt METAR LIPQ 041750Z AUTO 06003KT 030V100 9999 SCT013/// OVC068/// 09/08 Q1017
18:20
M
9 °C 10 km+ 1.300 ft 060° 060° 3 kt METAR LIPQ 041720Z AUTO 06003KT 020V100 9999 OVC013/// 09/08 Q1017
17:50
M
9 °C 10 km+ 1.200 ft 080° 080° 4 kt METAR LIPQ 041650Z AUTO 08004KT 9999 OVC012/// 09/08 Q1016
17:20
M
9 °C 10 km+ 1.200 ft 100° 100° 7 kt METAR LIPQ 041620Z AUTO 10007KT 9999 BKN012/// OVC035/// 09/08 Q1016
16:50
M
9 °C 10 km+ 1.100 ft 100° 100° 8 kt METAR LIPQ 041550Z AUTO 10008KT 9999 -RA BKN011/// BKN031/// OVC045/// 09/08 Q1015 REDZ
16:20
M
8 °C 10 km+ 1.200 ft 110° 110° 11 kt METAR LIPQ 041520Z AUTO 11011KT 9999 -RA OVC012/// 08/07 Q1015 REDZ
15:50
M
8 °C 10 km+ 1.300 ft 120° 120° 14 kt METAR LIPQ 041450Z AUTO 12014KT 9999 -RA OVC013/// 08/07 Q1015 RERA
15:20
M
8 °C 6 km 1.500 ft 120° 120° 17 kt METAR LIPQ 041420Z AUTO 12017KT 6000 +RA OVC015/// 08/07 Q1014
14:50
M
9 °C 8 km 2.100 ft 120° 120° 15 kt METAR LIPQ 041350Z AUTO 12015KT 8000 RA OVC021/// 09/07 Q1014
14:20
V
10 °C 10 km+ 6.200 ft 110° 110° 15 kt METAR LIPQ 041320Z AUTO 11015KT 9999 -RA SCT025/// OVC062/// 10/07 Q1014
13:50
V
10 °C 10 km+ 7.100 ft 110° 110° 17 kt METAR LIPQ 041250Z AUTO 11017KT 9999 FEW024/// SCT045/// BKN071/// 10/07 Q1013
13:20
M
10 °C 10 km+ 2.400 ft 120° 120° 18 kt METAR LIPQ 041220Z AUTO 12018KT 9999 -RA BKN024/// OVC061/// 10/07 Q1014
12:50
M
10 °C 10 km+ 2.900 ft 110° 110° 15 kt METAR LIPQ 041150Z AUTO 11015KT 9999 -RA BKN029/// BKN049/// 10/07 Q1014
12:20
V
11 °C 10 km+ 3.100 ft 110° 110° 10 kt METAR LIPQ 041120Z AUTO 11010KT 9999 -RA OVC031/// 11/07 Q1014
11:50
V
10 °C 10 km+ 3.100 ft 120° 120° 11 kt METAR LIPQ 041050Z AUTO 12011KT 9999 -RA OVC031/// 10/07 Q1014
11:20
V
11 °C 10 km+ 3.500 ft 110° 110° 13 kt METAR LIPQ 041020Z AUTO 11013KT 9999 -RA OVC035/// 11/06 Q1014
10:50
V
10 °C 10 km+ 3.700 ft 100° 100° 12 kt METAR LIPQ 040950Z AUTO 10012KT 9999 OVC037/// 10/06 Q1014
10:20
V
10 °C 10 km+ 4.000 ft 080° 080° 9 kt METAR LIPQ 040920Z AUTO 08009KT 9999 -RA OVC040/// 10/06 Q1014 RERA
09:50
V
10 °C 10 km+ 4.400 ft 080° 080° 7 kt METAR LIPQ 040850Z AUTO 08007KT 9999 -RA OVC044/// 10/06 Q1014 RERA
09:20
V
9 °C 10 km+ 4.800 ft 080° 080° 7 kt METAR LIPQ 040820Z AUTO 08007KT 9999 RA OVC048/// 09/06 Q1014
08:50
V
11 °C 10 km+ 6.700 ft 080° 080° 7 kt METAR LIPQ 040750Z AUTO 08007KT 050V110 9999 -RA OVC067/// 11/06 Q1013
08:20
V
11 °C 10 km+ 6.500 ft 080° 080° 7 kt METAR LIPQ 040720Z AUTO 08007KT 9999 OVC065/// 11/05 Q1013
07:50
V
11 °C 10 km+ 6.500 ft 080° 080° 8 kt METAR LIPQ 040650Z AUTO 08008KT 050V110 9999 BKN065/// 11/05 Q1013
07:20
V
11 °C 10 km+ 5.500 ft 090° 090° 8 kt METAR LIPQ 040620Z AUTO 09008KT 9999 BKN055/// OVC090/// 11/05 Q1013
06:50
V
9 °C 10 km+ 4.200 ft 030° 030° 4 kt METAR LIPQ 040550Z AUTO 03004KT 9999 BKN042/// OVC052/// 09/06 Q1013
06:20
V
9 °C 10 km+ 4.000 ft 050° 050° 4 kt METAR LIPQ 040520Z AUTO 05004KT 9999 -RA OVC040/// 09/06 Q1013
05:50
V
9 °C 10 km+ 3.900 ft 040° 040° 5 kt METAR LIPQ 040450Z AUTO 04005KT 9999 -RA OVC039/// 09/06 Q1013 RERA
05:20
V
9 °C 10 km+ 4.600 ft 060° 060° 4 kt METAR LIPQ 040420Z AUTO 06004KT 360V100 9999 RA OVC046/// 09/07 Q1014
04:50
V
8 °C 10 km+ 5.100 ft 040° 040° 7 kt METAR LIPQ 040350Z AUTO 04007KT 9999 RA OVC051/// 08/07 Q1013
04:20
V
9 °C 10 km+ 6.700 ft 080° 080° 7 kt METAR LIPQ 040320Z AUTO 08007KT 9999 RA OVC067/// 09/07 Q1014
03:50
V
9 °C 10 km+ 5.500 ft 040° 040° 8 kt METAR LIPQ 040250Z AUTO 04008KT 9999 RA OVC055/// 09/06 Q1014
03:20
V
9 °C 10 km+ 4.500 ft 050° 050° 6 kt METAR LIPQ 040220Z AUTO 05006KT 020V080 9999 -RA OVC045/// 09/05 Q1015
02:50
V
9 °C 10 km+ 5.000 ft 040° 040° 3 kt METAR LIPQ 040150Z AUTO 04003KT 9999 BKN050/// BKN066/// BKN130/// 09/04 Q1015
02:20
V
9 °C 10 km+ 5.100 ft 050° 050° 5 kt METAR LIPQ 040120Z AUTO 05005KT 9999 BKN051/// 09/04 Q1015
01:50
V
9 °C 10 km+ 5.000 ft 030° 030° 6 kt METAR LIPQ 040050Z AUTO 03006KT 9999 BKN050/// BKN083/// 09/04 Q1015
01:20
V
9 °C 10 km+ 7.800 ft 020° 020° 6 kt METAR LIPQ 040020Z AUTO 02006KT 9999 FEW042/// BKN078/// 09/05 Q1015
00:50
V
9 °C 10 km+ 6.100 ft 040° 040° 4 kt METAR LIPQ 032350Z AUTO 04004KT 010V070 9999 FEW042/// OVC061/// 09/05 Q1016
00:20
V
9 °C 10 km+ 4.000 ft 060° 060° 4 kt METAR LIPQ 032320Z AUTO 06004KT 9999 OVC040/// 09/05 Q1016

2022年12月3日

时间 代码 天气 温度 能见度 天花板 METAR/SPECI
23:50
V
9 °C 10 km+ 4.000 ft 040° 040° 5 kt METAR LIPQ 032250Z AUTO 04005KT 9999 OVC040/// 09/05 Q1016
23:20
V
9 °C 10 km+ 3.500 ft 070° 070° 5 kt METAR LIPQ 032220Z AUTO 07005KT 040V110 9999 BKN035/// OVC070/// 09/05 Q1016
22:50
V
9 °C 10 km+ 6.900 ft 040° 040° 4 kt METAR LIPQ 032150Z AUTO 04004KT 010V080 9999 SCT033/// BKN069/// BKN081/// 09/06 Q1017
22:20
V
9 °C 10 km+ 6.300 ft 060° 060° 4 kt METAR LIPQ 032120Z AUTO 06004KT 020V090 9999 -RA FEW033/// OVC063/// 09/06 Q1017
21:50
V
8 °C 10 km+ 6.000 ft 040° 040° 5 kt METAR LIPQ 032050Z AUTO 04005KT 9999 -RA FEW032/// OVC060/// 08/06 Q1017
21:20
V
8 °C 10 km+ 6.200 ft 030° 030° 4 kt METAR LIPQ 032020Z AUTO 03004KT 9999 -RA OVC062/// 08/06 Q1017
20:50
V
8 °C 10 km+ 4.900 ft 050° 050° 5 kt METAR LIPQ 031950Z AUTO 05005KT 9999 -RA FEW024/// BKN049/// OVC098/// 08/06 Q1017
20:20
M
8 °C 10 km+ 2.700 ft 070° 070° 3 kt METAR LIPQ 031920Z AUTO 07003KT 050V110 9999 -RA OVC027/// 08/06 Q1017
19:50
M
8 °C 10 km+ 2.800 ft Var Var 2 kt METAR LIPQ 031850Z AUTO VRB02KT 9999 -RA OVC028/// 08/05 Q1017
19:20
V
8 °C 10 km+ 3.900 ft 070° 070° 5 kt METAR LIPQ 031820Z AUTO 07005KT 040V100 9999 -RA OVC039/// 08/05 Q1017
18:50
V
9 °C 10 km+ 6.000 ft Var Var 2 kt METAR LIPQ 031750Z AUTO VRB02KT 9999 -DZ OVC060/// 09/06 Q1017
18:20
V
8 °C 10 km+ 5.000 ft 070° 070° 4 kt METAR LIPQ 031720Z AUTO 07004KT 9999 -RA OVC050/// 08/06 Q1017
17:50
V
9 °C 10 km+ 4.700 ft 070° 070° 5 kt METAR LIPQ 031650Z AUTO 07005KT 9999 -RA FEW024/// OVC047/// 09/05 Q1017 RERA
17:20
V
10 °C 10 km+ 4.700 ft 080° 080° 5 kt METAR LIPQ 031620Z AUTO 08005KT 040V100 9999 OVC047/// 10/05 Q1017
16:50
V
9 °C 10 km+ 5.000 ft 040° 040° 4 kt METAR LIPQ 031550Z AUTO 04004KT 010V080 9999 SCT028/// OVC050/// 09/05 Q1017
16:20
V
9 °C 10 km+ 3.700 ft 030° 030° 4 kt METAR LIPQ 031520Z AUTO 03004KT 9999 OVC037/// 09/05 Q1017
15:50
V
9 °C 10 km+ 4.400 ft 040° 040° 5 kt METAR LIPQ 031450Z AUTO 04005KT 9999 SCT026/// BKN044/// OVC074/// 09/05 Q1017
15:20
V
9 °C 10 km+ 7.300 ft 030° 030° 5 kt METAR LIPQ 031420Z AUTO 03005KT 9999 SCT027/// BKN073/// 09/06 Q1017
14:50
V
9 °C 10 km+ 3.400 ft 020° 020° 5 kt METAR LIPQ 031350Z AUTO 02005KT 9999 -RA OVC034/// 09/06 Q1017 RERA
14:20
M
9 °C 10 km+ 2.900 ft 020° 020° 6 kt METAR LIPQ 031320Z AUTO 02006KT 9999 -RA OVC029/// 09/06 Q1017 RERA
13:50
V
9 °C 10 km+ 3.000 ft 020° 020° 6 kt METAR LIPQ 031250Z AUTO 02006KT 9999 -RA OVC030/// 09/06 Q1017
13:20
V
9 °C 10 km+ 3.200 ft 030° 030° 7 kt METAR LIPQ 031220Z AUTO 03007KT 9999 -RA OVC032/// 09/05 Q1017
12:50
V
9 °C 10 km+ 3.000 ft 040° 040° 7 kt METAR LIPQ 031150Z AUTO 04007KT 9999 OVC030/// 09/05 Q1018
12:20
V
9 °C 10 km+ 3.000 ft 050° 050° 4 kt METAR LIPQ 031120Z AUTO 05004KT 010V100 9999 -RA OVC030/// 09/05 Q1018
11:50
V
9 °C 10 km+ 3.800 ft 050° 050° 6 kt METAR LIPQ 031050Z AUTO 05006KT 9999 -RA OVC038/// 09/05 Q1018
11:20
V
9 °C 10 km+ 4.600 ft 040° 040° 4 kt METAR LIPQ 031020Z AUTO 04004KT 9999 -RA OVC046/// 09/05 Q1018
10:50
V
9 °C 10 km+ 4.900 ft 030° 030° 4 kt METAR LIPQ 030950Z AUTO 03004KT 9999 -RA OVC049/// 09/05 Q1019

我们和第三方通过cookies跟踪您在我们网站上的互联网行为。如果你继续,我们认为你同意我们的饼干政策